Time;durP1;ratioP1;P1;durP2;ratioP2;P2;SDS_P1;SDS_P2;PMS_P1;PMS_P2;Temp;Humidity;BMP_temperature;BMP_pressure;BME280_temperature;BME280_humidity;BME280_pressure;Samples;Min_cycle;Max_cycle;Signal;HPM_P1;HPM_P2
2023/10/07 04:31:34;;;;;;;0.00;0.00;;;12.80;78.10;;;;;;5357249;23;20139;-90
2023/10/07 04:34:12;;;;;;;0.10;0.10;;;12.80;78.30;;;;;;4894017;29;20047;-89
2023/10/07 04:39:28;;;;;;;0.00;0.00;;;12.80;78.30;;;;;;4887294;29;20044;-87
2023/10/07 04:42:00;;;;;;;0.10;0.10;;;12.80;78.20;;;;;;4880322;29;20071;-88
2023/10/07 04:52:30;;;;;;;0.10;0.10;;;12.80;78.00;;;;;;4882335;29;20025;-87
2023/10/07 04:55:00;;;;;;;0.00;0.00;;;12.90;77.80;;;;;;4880186;29;20032;-88
2023/10/07 04:57:56;;;;;;;0.10;0.10;;;12.90;77.70;;;;;;4881255;29;20037;-89
2023/10/07 05:03:03;;;;;;;0.05;0.05;;;12.90;77.80;;;;;;4897378;29;20036;-88
2023/10/07 05:05:35;;;;;;;0.10;0.10;;;12.90;77.90;;;;;;4901133;29;20100;-88
2023/10/07 05:08:08;;;;;;;0.00;0.00;;;12.90;78.20;;;;;;4881659;29;20025;-88
2023/10/07 05:10:50;;;;;;;0.10;0.10;;;12.90;78.20;;;;;;4881420;29;20033;-88
2023/10/07 05:13:16;;;;;;;0.00;0.00;;;12.90;77.90;;;;;;4882737;29;20056;-87
2023/10/07 05:15:42;;;;;;;0.00;0.00;;;12.90;77.80;;;;;;4882215;29;20045;-88
2023/10/07 05:18:12;;;;;;;0.00;0.00;;;12.90;77.70;;;;;;4882059;29;20040;-87
2023/10/07 05:20:42;;;;;;;0.10;0.10;;;12.90;77.70;;;;;;4885808;29;20057;-88
2023/10/07 05:23:09;;;;;;;0.10;0.10;;;13.00;77.70;;;;;;4883684;29;20024;-88
2023/10/07 05:25:42;;;;;;;0.10;0.10;;;12.90;77.80;;;;;;4884006;29;20153;-88
2023/10/07 05:28:11;;;;;;;0.00;0.00;;;12.90;77.70;;;;;;4866874;29;20033;-88
2023/10/07 05:30:38;;;;;;;0.10;0.10;;;13.00;77.70;;;;;;4867648;29;20053;-88
2023/10/07 05:33:08;;;;;;;0.05;0.05;;;13.00;77.60;;;;;;4884009;29;20032;-88
2023/10/07 05:35:37;;;;;;;0.00;0.00;;;13.00;77.60;;;;;;4900522;29;20486;-88
2023/10/07 05:38:09;;;;;;;0.10;0.10;;;13.00;77.50;;;;;;4900726;29;20025;-87
2023/10/07 05:40:36;;;;;;;0.10;0.10;;;13.00;77.30;;;;;;4900106;29;20040;-89
2023/10/07 05:43:07;;;;;;;0.05;0.05;;;13.00;77.30;;;;;;4899013;29;20173;-87
2023/10/07 05:45:33;;;;;;;0.00;0.00;;;12.90;77.40;;;;;;4899793;29;20488;-88
2023/10/07 05:47:59;;;;;;;0.00;0.00;;;13.00;77.40;;;;;;4899597;29;20036;-88
2023/10/07 05:50:28;;;;;;;0.00;0.00;;;13.00;77.20;;;;;;4896421;29;20497;-88
2023/10/07 05:52:54;;;;;;;0.00;0.00;;;13.00;77.00;;;;;;4882151;29;20021;-90
2023/10/07 05:55:22;;;;;;;0.00;0.00;;;12.90;77.00;;;;;;4890945;29;20411;-89
2023/10/07 05:57:48;;;;;;;0.10;0.10;;;12.90;77.10;;;;;;4899224;29;20033;-76
2023/10/07 06:00:17;;;;;;;0.10;0.10;;;12.90;77.20;;;;;;4899213;29;20117;-76
2023/10/07 06:02:42;;;;;;;0.00;0.00;;;12.90;77.30;;;;;;4888423;29;20049;-77
2023/10/07 06:05:10;;;;;;;0.00;0.00;;;12.90;77.20;;;;;;4891591;29;20055;-78
2023/10/07 06:07:38;;;;;;;0.10;0.10;;;12.90;77.20;;;;;;4888946;29;20096;-78
2023/10/07 06:10:10;;;;;;;0.10;0.10;;;12.90;77.10;;;;;;4889338;29;20033;-79
2023/10/07 06:12:36;;;;;;;0.00;0.00;;;12.90;77.00;;;;;;4889675;29;20424;-78
2023/10/07 06:15:08;;;;;;;0.10;0.10;;;12.90;76.90;;;;;;4888588;29;20044;-79
2023/10/07 06:17:38;;;;;;;0.10;0.10;;;13.00;76.90;;;;;;4899955;29;20092;-81
2023/10/07 06:20:17;;;;;;;0.00;0.00;;;13.00;76.90;;;;;;4899967;29;20044;-79
2023/10/07 06:22:47;;;;;;;0.10;0.10;;;12.90;76.70;;;;;;4897591;29;20032;-78
2023/10/07 06:25:14;;;;;;;0.00;0.00;;;13.00;76.90;;;;;;4903382;29;20028;-80
2023/10/07 06:27:43;;;;;;;0.05;0.05;;;13.00;77.00;;;;;;4891538;29;20033;-81
2023/10/07 06:30:20;;;;;;;0.08;0.08;;;13.00;76.60;;;;;;4884398;29;20557;-81
2023/10/07 06:32:55;;;;;;;0.10;0.10;;;13.00;76.60;;;;;;4887281;29;20036;-77
2023/10/07 06:35:23;;;;;;;0.10;0.10;;;13.00;76.50;;;;;;4883061;29;20040;-77
2023/10/07 06:37:51;;;;;;;0.10;0.10;;;13.10;76.40;;;;;;4883793;29;20097;-78
2023/10/07 06:40:28;;;;;;;0.00;0.00;;;13.10;76.50;;;;;;4873177;29;20033;-77
2023/10/07 06:42:56;;;;;;;0.10;0.10;;;13.10;76.50;;;;;;4886879;29;20052;-78
2023/10/07 06:45:22;;;;;;;0.00;0.00;;;13.10;76.50;;;;;;4878481;29;20045;-78
2023/10/07 06:47:48;;;;;;;0.10;0.10;;;13.10;76.70;;;;;;4881902;29;20037;-78
2023/10/07 06:50:19;;;;;;;0.10;0.10;;;13.10;76.60;;;;;;4896969;29;20516;-78
2023/10/07 06:52:49;;;;;;;0.10;0.10;;;13.20;76.60;;;;;;4872277;29;20032;-77
2023/10/07 06:55:15;;;;;;;0.10;0.10;;;13.10;76.70;;;;;;4882786;29;20499;-83
2023/10/07 06:57:45;;;;;;;0.10;0.10;;;13.20;76.80;;;;;;4902669;29;20024;-85
2023/10/07 07:00:22;;;;;;;0.00;0.00;;;13.20;76.70;;;;;;4899696;29;20040;-78
2023/10/07 07:02:54;;;;;;;0.00;0.00;;;13.30;76.60;;;;;;4880526;29;20037;-77
2023/10/07 07:05:22;;;;;;;0.10;0.10;;;13.40;76.30;;;;;;4885787;29;20513;-77
2023/10/07 07:07:52;;;;;;;0.10;0.10;;;13.50;76.20;;;;;;4881091;29;20043;-76
2023/10/07 07:10:27;;;;;;;0.10;0.10;;;13.50;76.10;;;;;;4894068;29;20110;-76
2023/10/07 07:12:58;;;;;;;0.10;0.10;;;13.60;75.80;;;;;;4898307;29;20056;-76
2023/10/07 07:15:36;;;;;;;0.10;0.10;;;13.70;75.70;;;;;;4880694;29;20029;-76
2023/10/07 07:18:25;;;;;;;0.10;0.10;;;13.90;75.00;;;;;;4897455;29;20040;-76
2023/10/07 07:23:24;;;;;;;0.10;0.10;;;14.30;73.80;;;;;;4900023;29;20043;-77
2023/10/07 07:25:59;;;;;;;0.10;0.10;;;14.80;72.80;;;;;;4900638;29;20031;-76
2023/10/07 07:28:27;;;;;;;0.10;0.10;;;15.40;69.90;;;;;;4899826;29;20083;-78
2023/10/07 07:30:57;;;;;;;0.10;0.10;;;16.10;68.10;;;;;;4868876;29;20048;-76
2023/10/07 07:33:28;;;;;;;0.10;0.10;;;16.60;66.40;;;;;;4890630;29;20029;-76
2023/10/07 07:35:56;;;;;;;0.20;0.20;;;16.90;64.50;;;;;;4892551;29;20028;-76
2023/10/07 07:38:29;;;;;;;0.10;0.10;;;17.20;64.20;;;;;;4893354;29;20399;-78
2023/10/07 07:41:06;;;;;;;0.10;0.10;;;17.40;63.40;;;;;;4884946;29;20440;-76
2023/10/07 07:43:37;;;;;;;0.17;0.10;;;17.50;63.20;;;;;;4888190;29;20108;-76
2023/10/07 07:46:26;;;;;;;0.10;0.10;;;17.10;63.90;;;;;;4895829;29;20177;-76
2023/10/07 07:48:53;;;;;;;0.20;0.10;;;16.80;63.70;;;;;;4883284;29;20036;-76
2023/10/07 07:51:25;;;;;;;0.08;0.08;;;16.90;64.00;;;;;;4883592;29;20022;-77
2023/10/07 07:53:52;;;;;;;0.13;0.10;;;16.60;65.20;;;;;;4899383;29;20033;-80
2023/10/07 07:56:22;;;;;;;0.10;0.10;;;16.20;66.60;;;;;;4892685;29;20025;-83
2023/10/07 07:58:48;;;;;;;0.10;0.10;;;15.90;67.70;;;;;;4882370;29;20444;-82
2023/10/07 08:01:28;;;;;;;0.10;0.10;;;15.70;68.30;;;;;;4889565;29;20133;-83
2023/10/07 08:03:55;;;;;;;0.10;0.10;;;15.50;69.20;;;;;;4881678;29;20061;-83
2023/10/07 08:06:21;;;;;;;0.10;0.10;;;15.40;69.60;;;;;;4889552;29;20039;-83
2023/10/07 08:08:49;;;;;;;0.00;0.00;;;15.40;70.30;;;;;;4888422;29;20048;-83
2023/10/07 08:11:17;;;;;;;0.00;0.00;;;15.40;69.70;;;;;;4891871;29;20515;-83
2023/10/07 08:13:44;;;;;;;0.10;0.10;;;15.40;70.10;;;;;;4899293;29;20033;-83
2023/10/07 08:16:15;;;;;;;0.10;0.10;;;15.30;69.60;;;;;;4900084;29;20088;-83
2023/10/07 08:18:41;;;;;;;0.10;0.10;;;15.40;71.00;;;;;;4889976;29;20032;-83
2023/10/07 08:21:07;;;;;;;0.10;0.10;;;15.30;70.40;;;;;;4896121;29;20365;-83
2023/10/07 08:23:36;;;;;;;0.00;0.00;;;15.50;70.50;;;;;;4887861;29;20407;-83
2023/10/07 08:26:09;;;;;;;0.00;0.00;;;15.50;70.80;;;;;;4889935;29;20067;-83
2023/10/07 08:28:46;;;;;;;0.03;0.03;;;15.60;70.90;;;;;;4890188;29;20060;-83
2023/10/07 08:31:14;;;;;;;0.10;0.10;;;15.70;70.00;;;;;;4891359;29;20040;-83
2023/10/07 08:33:41;;;;;;;0.08;0.08;;;15.70;70.10;;;;;;4892566;29;20029;-83
2023/10/07 08:36:07;;;;;;;0.10;0.10;;;15.70;69.90;;;;;;4877528;29;20021;-83
2023/10/07 08:38:50;;;;;;;0.10;0.10;;;15.80;70.00;;;;;;4891567;29;20517;-83
2023/10/07 08:41:18;;;;;;;0.10;0.10;;;15.80;70.00;;;;;;4874448;29;20021;-83
2023/10/07 08:43:45;;;;;;;0.10;0.10;;;15.90;69.60;;;;;;4893020;29;20315;-83
2023/10/07 08:46:15;;;;;;;0.08;0.08;;;16.00;69.30;;;;;;4889832;29;20075;-77
2023/10/07 08:48:49;;;;;;;0.00;0.00;;;16.00;69.10;;;;;;4872145;29;20077;-85
2023/10/07 08:51:21;;;;;;;0.10;0.10;;;16.10;69.20;;;;;;4874549;29;20044;-81
2023/10/07 08:53:47;;;;;;;0.00;0.00;;;16.20;70.00;;;;;;4865431;29;20485;-83
2023/10/07 08:56:17;;;;;;;0.00;0.00;;;16.20;69.40;;;;;;4882854;29;20052;-83
2023/10/07 08:58:44;;;;;;;0.10;0.10;;;16.30;68.70;;;;;;4880972;29;20057;-83
2023/10/07 09:01:19;;;;;;;0.10;0.10;;;16.40;69.10;;;;;;4887749;29;20032;-86
2023/10/07 09:03:53;;;;;;;0.00;0.00;;;16.40;69.60;;;;;;4892911;29;20032;-82
2023/10/07 09:06:20;;;;;;;0.05;0.05;;;16.50;68.60;;;;;;4889920;29;20028;-85
2023/10/07 09:08:46;;;;;;;0.00;0.00;;;16.50;68.80;;;;;;4891667;29;20104;-84
2023/10/07 09:11:19;;;;;;;0.10;0.10;;;16.60;69.00;;;;;;4874606;29;20063;-83
2023/10/07 09:13:47;;;;;;;0.05;0.05;;;16.70;69.10;;;;;;4892032;29;20027;-85
2023/10/07 09:16:13;;;;;;;0.08;0.08;;;16.70;69.20;;;;;;4873675;29;20161;-84
2023/10/07 09:18:42;;;;;;;0.00;0.00;;;16.80;69.30;;;;;;4889870;29;20033;-87
2023/10/07 09:21:19;;;;;;;0.10;0.10;;;16.90;69.40;;;;;;4873631;29;20032;-87
2023/10/07 09:23:59;;;;;;;0.10;0.10;;;17.00;68.90;;;;;;4891097;29;20120;-87
2023/10/07 09:26:33;;;;;;;0.00;0.00;;;17.10;68.70;;;;;;4872792;29;20037;-87
2023/10/07 09:29:06;;;;;;;0.10;0.10;;;17.20;69.00;;;;;;4875726;29;20051;-86
2023/10/07 09:31:35;;;;;;;0.10;0.10;;;17.30;69.00;;;;;;4882106;29;20053;-86
2023/10/07 09:34:09;;;;;;;0.10;0.10;;;17.30;68.50;;;;;;4892477;29;20025;-86
2023/10/07 09:36:43;;;;;;;0.10;0.10;;;17.40;67.80;;;;;;4892615;29;20064;-87
2023/10/07 09:41:39;;;;;;;0.00;0.00;;;17.60;69.20;;;;;;4888451;29;20025;-85
2023/10/07 09:44:21;;;;;;;0.00;0.00;;;17.60;68.00;;;;;;4890868;29;20499;-87
2023/10/07 09:46:52;;;;;;;0.00;0.00;;;17.70;68.40;;;;;;4887503;29;20084;-87
2023/10/07 09:49:23;;;;;;;0.00;0.00;;;17.80;67.70;;;;;;4914962;29;20040;-86
2023/10/07 09:52:15;;;;;;;0.08;0.00;;;17.80;67.10;;;;;;4890779;29;20365;-85
2023/10/07 09:54:55;;;;;;;0.00;0.00;;;17.90;67.00;;;;;;4896322;29;20029;-85
2023/10/07 09:57:47;;;;;;;0.00;0.00;;;18.10;66.30;;;;;;4895596;29;20040;-85
2023/10/07 10:00:43;;;;;;;0.00;0.00;;;18.20;66.10;;;;;;4892386;29;20036;-85
2023/10/07 10:03:47;;;;;;;0.00;0.00;;;18.20;66.00;;;;;;4893773;29;20029;-83
2023/10/07 10:06:33;;;;;;;0.10;0.10;;;18.30;66.20;;;;;;4859432;29;20124;-91
2023/10/07 10:09:09;;;;;;;0.03;0.03;;;18.30;65.00;;;;;;4866467;29;20719;-86
2023/10/07 10:14:16;;;;;;;0.00;0.00;;;18.50;64.70;;;;;;4891031;29;20044;-86
2023/10/07 10:16:57;;;;;;;0.00;0.00;;;18.60;65.60;;;;;;4892429;29;20107;-86
2023/10/07 10:19:44;;;;;;;0.00;0.00;;;18.70;65.10;;;;;;4890184;29;20052;-86
2023/10/07 10:22:11;;;;;;;0.00;0.00;;;18.70;65.20;;;;;;4897082;29;20032;-88
2023/10/07 10:24:42;;;;;;;0.00;0.00;;;18.80;65.00;;;;;;4859074;29;20195;-80
2023/10/07 10:27:17;;;;;;;0.00;0.00;;;18.90;64.40;;;;;;4872198;29;20024;-81
2023/10/07 10:29:52;;;;;;;0.00;0.00;;;19.00;62.10;;;;;;4899797;29;20048;-81
2023/10/07 10:32:28;;;;;;;0.03;0.03;;;19.10;63.70;;;;;;4888021;29;20394;-84
2023/10/07 10:35:01;;;;;;;0.10;0.10;;;19.20;63.70;;;;;;4890104;29;20036;-87
2023/10/07 10:37:30;;;;;;;0.03;0.03;;;19.20;63.20;;;;;;4877514;29;20028;-83
2023/10/07 10:39:56;;;;;;;0.00;0.00;;;19.30;61.80;;;;;;4882984;29;20056;-81
2023/10/07 10:42:22;;;;;;;0.00;0.00;;;19.40;60.80;;;;;;4872584;29;20025;-89
2023/10/07 10:44:52;;;;;;;0.10;0.10;;;19.50;60.70;;;;;;4886890;29;20477;-84
2023/10/07 10:47:18;;;;;;;0.00;0.00;;;19.60;60.10;;;;;;4874407;29;20104;-85
2023/10/07 10:49:54;;;;;;;0.00;0.00;;;19.70;60.70;;;;;;4879671;29;20028;-84
2023/10/07 10:52:21;;;;;;;0.00;0.00;;;19.70;59.50;;;;;;4891885;29;20531;-84
2023/10/07 10:54:48;;;;;;;0.10;0.10;;;19.80;59.90;;;;;;4874069;29;20031;-82
2023/10/07 10:57:19;;;;;;;0.00;0.00;;;19.80;59.50;;;;;;4885151;29;20033;-88
2023/10/07 10:59:47;;;;;;;0.03;0.03;;;19.80;61.00;;;;;;4894276;29;20457;-83
2023/10/07 11:02:17;;;;;;;0.00;0.00;;;19.90;60.10;;;;;;4868624;29;20033;-86
2023/10/07 11:04:47;;;;;;;0.00;0.00;;;20.00;60.80;;;;;;4890526;29;20400;-86
2023/10/07 11:07:14;;;;;;;0.00;0.00;;;20.00;60.90;;;;;;4890200;29;20028;-86
2023/10/07 11:09:47;;;;;;;0.00;0.00;;;20.10;60.30;;;;;;4877305;29;20027;-84
2023/10/07 11:12:16;;;;;;;0.00;0.00;;;20.20;60.00;;;;;;4870378;29;20029;-84
2023/10/07 11:14:44;;;;;;;0.00;0.00;;;20.30;60.00;;;;;;4888796;29;20031;-88
2023/10/07 11:17:12;;;;;;;0.00;0.00;;;20.30;60.10;;;;;;4884879;29;20448;-81
2023/10/07 11:19:47;;;;;;;0.00;0.00;;;20.40;59.00;;;;;;4874115;29;20047;-85
2023/10/07 11:22:22;;;;;;;0.10;0.10;;;20.50;60.00;;;;;;4874457;29;20096;-81
2023/10/07 11:24:50;;;;;;;0.00;0.00;;;20.50;58.30;;;;;;4893540;29;20416;-85
2023/10/07 11:27:26;;;;;;;0.10;0.10;;;20.50;57.80;;;;;;4866245;29;20433;-82
2023/10/07 11:30:03;;;;;;;0.10;0.10;;;20.60;58.70;;;;;;4886575;29;20037;-83
2023/10/07 11:32:30;;;;;;;0.00;0.00;;;20.60;59.20;;;;;;4888894;29;20551;-86
2023/10/07 11:34:57;;;;;;;0.00;0.00;;;20.70;56.40;;;;;;4887492;29;20167;-78
2023/10/07 11:37:23;;;;;;;0.00;0.00;;;20.80;57.30;;;;;;4873949;23;20049;-85
2023/10/07 11:39:49;;;;;;;0.00;0.00;;;20.80;56.60;;;;;;4865284;29;20040;-78
2023/10/07 11:42:20;;;;;;;0.10;0.10;;;20.80;58.30;;;;;;4865931;29;20025;-78
2023/10/07 11:44:54;;;;;;;0.10;0.10;;;20.90;58.70;;;;;;4864366;29;20025;-77
2023/10/07 11:47:21;;;;;;;0.10;0.10;;;21.00;59.00;;;;;;4872663;29;20029;-78
2023/10/07 11:49:47;;;;;;;0.00;0.00;;;21.10;57.80;;;;;;4867470;29;20115;-77
2023/10/07 11:52:19;;;;;;;0.00;0.00;;;21.20;58.40;;;;;;4865887;29;20061;-79
2023/10/07 11:54:48;;;;;;;0.00;0.00;;;21.20;56.00;;;;;;4864585;29;20068;-81
2023/10/07 11:57:18;;;;;;;0.00;0.00;;;21.20;56.20;;;;;;4866562;29;20413;-79
2023/10/07 11:59:44;;;;;;;0.10;0.10;;;21.30;55.20;;;;;;4869798;29;20045;-81
2023/10/07 12:02:10;;;;;;;0.00;0.00;;;21.30;56.10;;;;;;4871831;29;20447;-81
2023/10/07 12:04:43;;;;;;;0.10;0.10;;;21.40;56.10;;;;;;4864662;29;20120;-80
2023/10/07 12:07:10;;;;;;;0.05;0.05;;;21.40;56.40;;;;;;4867916;29;20116;-78
2023/10/07 12:09:37;;;;;;;0.00;0.00;;;21.50;57.00;;;;;;4868356;29;20483;-81
2023/10/07 12:12:03;;;;;;;0.00;0.00;;;21.50;56.60;;;;;;4845992;29;20033;-78
2023/10/07 12:14:31;;;;;;;0.10;0.10;;;21.50;56.10;;;;;;4883066;29;20093;-80
2023/10/07 12:16:58;;;;;;;0.00;0.00;;;21.50;56.50;;;;;;4862753;29;20029;-78
2023/10/07 12:19:25;;;;;;;0.00;0.00;;;21.60;56.40;;;;;;4863331;29;20413;-78
2023/10/07 12:21:52;;;;;;;0.00;0.00;;;21.70;56.70;;;;;;4871268;29;20040;-78
2023/10/07 12:24:19;;;;;;;0.00;0.00;;;21.80;56.90;;;;;;4871480;29;20033;-79
2023/10/07 12:26:50;;;;;;;0.00;0.00;;;21.80;55.50;;;;;;4869060;29;20059;-78
2023/10/07 12:29:18;;;;;;;0.10;0.10;;;21.80;55.30;;;;;;4868856;29;20981;-80
2023/10/07 12:31:45;;;;;;;0.00;0.00;;;21.80;54.90;;;;;;4870070;29;20446;-80
2023/10/07 12:34:16;;;;;;;0.10;0.10;;;21.80;55.90;;;;;;4870356;29;20045;-80
2023/10/07 12:36:45;;;;;;;0.00;0.00;;;21.90;55.60;;;;;;4870969;29;20747;-80
2023/10/07 12:39:11;;;;;;;0.10;0.10;;;22.00;54.90;;;;;;4868378;29;20041;-80
2023/10/07 12:41:38;;;;;;;0.00;0.00;;;22.10;54.40;;;;;;4869143;29;20033;-79
2023/10/07 12:44:08;;;;;;;0.00;0.00;;;22.10;53.30;;;;;;4866057;29;20033;-80
2023/10/07 12:46:38;;;;;;;0.10;0.10;;;22.10;53.30;;;;;;4868035;29;20033;-80
2023/10/07 12:49:13;;;;;;;0.00;0.00;;;22.20;53.30;;;;;;4850290;29;20040;-80
2023/10/07 12:51:43;;;;;;;0.10;0.10;;;22.20;54.90;;;;;;4867815;29;20033;-80
2023/10/07 12:54:10;;;;;;;0.00;0.00;;;22.20;55.00;;;;;;4863446;29;20566;-79
2023/10/07 12:56:42;;;;;;;0.00;0.00;;;22.30;54.30;;;;;;4866866;29;20040;-79
2023/10/07 12:59:18;;;;;;;0.00;0.00;;;22.30;55.30;;;;;;4874550;29;20382;-79
2023/10/07 13:01:56;;;;;;;0.00;0.00;;;22.40;54.70;;;;;;4870435;29;20034;-79
2023/10/07 13:04:25;;;;;;;0.00;0.00;;;22.40;53.60;;;;;;4870867;29;20029;-80
2023/10/07 13:07:09;;;;;;;0.00;0.00;;;22.50;54.60;;;;;;4866872;29;20147;-80
2023/10/07 13:09:35;;;;;;;0.00;0.00;;;22.60;53.40;;;;;;4874844;29;20032;-79
2023/10/07 13:12:11;;;;;;;0.00;0.00;;;22.60;52.50;;;;;;4869341;29;20029;-79
2023/10/07 13:14:40;;;;;;;0.03;0.03;;;22.60;53.20;;;;;;4862578;29;20514;-79
2023/10/07 13:17:07;;;;;;;0.00;0.00;;;22.70;52.10;;;;;;4845864;29;20037;-79
2023/10/07 13:19:36;;;;;;;0.00;0.00;;;22.80;51.80;;;;;;4868638;29;20033;-79
2023/10/07 13:22:05;;;;;;;0.00;0.00;;;22.80;52.60;;;;;;4869103;29;20116;-79
2023/10/07 13:24:31;;;;;;;0.00;0.00;;;22.80;53.30;;;;;;4864224;29;20026;-79
2023/10/07 13:26:56;;;;;;;0.03;0.00;;;22.80;51.90;;;;;;4847278;29;20033;-78
2023/10/07 13:29:23;;;;;;;0.00;0.00;;;22.80;51.10;;;;;;4864769;29;20033;-80
2023/10/07 13:31:49;;;;;;;0.00;0.00;;;22.80;52.00;;;;;;4870927;29;20069;-79
2023/10/07 13:34:17;;;;;;;0.05;0.05;;;22.80;50.60;;;;;;4870934;29;20037;-82
2023/10/07 13:36:43;;;;;;;0.00;0.00;;;22.90;51.60;;;;;;4879898;29;20033;-82
2023/10/07 13:39:15;;;;;;;0.00;0.00;;;22.90;51.20;;;;;;4874899;29;20081;-82
2023/10/07 13:41:46;;;;;;;0.00;0.00;;;22.90;52.30;;;;;;4872320;29;20032;-84
2023/10/07 13:44:14;;;;;;;0.00;0.00;;;23.00;52.40;;;;;;4872045;29;20528;-77
2023/10/07 13:46:39;;;;;;;0.00;0.00;;;23.00;52.90;;;;;;4869968;29;20024;-82
2023/10/07 13:49:08;;;;;;;0.00;0.00;;;23.10;52.20;;;;;;4865884;29;20113;-82
2023/10/07 13:51:41;;;;;;;0.15;0.05;;;23.10;51.30;;;;;;4869221;29;20036;-81
2023/10/07 13:57:00;;;;;;;0.00;0.00;;;23.20;52.00;;;;;;4870451;29;20086;-81
2023/10/07 13:59:25;;;;;;;0.00;0.00;;;23.20;51.60;;;;;;4864706;29;20112;-82
2023/10/07 14:01:52;;;;;;;0.00;0.00;;;23.20;51.80;;;;;;4869338;29;20054;-82
2023/10/07 14:04:20;;;;;;;0.00;0.00;;;23.30;51.10;;;;;;4851548;29;20414;-82
2023/10/07 14:06:47;;;;;;;0.00;0.00;;;23.30;49.80;;;;;;4873650;29;20081;-84
2023/10/07 14:09:22;;;;;;;0.00;0.00;;;23.30;51.20;;;;;;4876324;29;20037;-84
2023/10/07 14:11:48;;;;;;;0.00;0.00;;;23.30;51.90;;;;;;4883021;29;20025;-83
2023/10/07 14:14:14;;;;;;;0.00;0.00;;;23.30;52.40;;;;;;4871141;29;20153;-83
2023/10/07 14:16:42;;;;;;;0.00;0.00;;;23.30;52.90;;;;;;4869959;29;20056;-84
2023/10/07 14:19:08;;;;;;;0.00;0.00;;;23.30;51.40;;;;;;4879669;29;20036;-85
2023/10/07 14:21:35;;;;;;;0.00;0.00;;;23.30;51.10;;;;;;4873576;29;20021;-85
2023/10/07 14:24:04;;;;;;;0.00;0.00;;;23.40;51.40;;;;;;4881775;29;20025;-83
2023/10/07 14:26:34;;;;;;;0.00;0.00;;;23.40;51.80;;;;;;4874828;29;20037;-83
2023/10/07 14:29:02;;;;;;;0.00;0.00;;;23.40;51.90;;;;;;4865943;29;20070;-79
2023/10/07 14:31:29;;;;;;;0.00;0.00;;;23.50;51.30;;;;;;4875892;29;20029;-77
2023/10/07 14:33:55;;;;;;;0.00;0.00;;;23.50;50.00;;;;;;4882239;29;20098;-81
2023/10/07 14:36:24;;;;;;;0.00;0.00;;;23.50;49.10;;;;;;4871247;29;20136;-76
2023/10/07 14:38:51;;;;;;;0.00;0.00;;;23.50;49.60;;;;;;4853350;29;20037;-76
2023/10/07 14:41:18;;;;;;;0.00;0.00;;;23.50;50.00;;;;;;4862225;29;20493;-76
2023/10/07 14:43:44;;;;;;;0.00;0.00;;;23.50;49.30;;;;;;4879094;29;20030;-76
2023/10/07 14:46:13;;;;;;;0.00;0.00;;;23.50;50.20;;;;;;4865366;29;20025;-76
2023/10/07 14:48:40;;;;;;;0.00;0.00;;;23.50;49.30;;;;;;4865169;29;20043;-76
2023/10/07 14:51:09;;;;;;;0.00;0.00;;;23.50;49.90;;;;;;4861497;29;20089;-75
2023/10/07 14:53:35;;;;;;;0.00;0.00;;;23.50;49.30;;;;;;4872424;29;20062;-77
2023/10/07 14:56:11;;;;;;;0.00;0.00;;;23.50;49.60;;;;;;4869294;29;20521;-79
2023/10/07 14:58:36;;;;;;;0.00;0.00;;;23.50;50.30;;;;;;4864880;29;20405;-78
2023/10/07 15:01:09;;;;;;;0.00;0.00;;;23.50;49.90;;;;;;4868252;29;20037;-78
2023/10/07 15:03:34;;;;;;;0.00;0.00;;;23.50;50.20;;;;;;4852975;29;20105;-78
2023/10/07 15:06:15;;;;;;;0.00;0.00;;;23.50;49.90;;;;;;4843583;29;21226;-78
2023/10/07 15:08:42;;;;;;;0.00;0.00;;;23.50;50.30;;;;;;4863879;29;20468;-76
2023/10/07 15:11:08;;;;;;;0.00;0.00;;;23.50;50.30;;;;;;4855467;29;20049;-79
2023/10/07 15:13:34;;;;;;;0.00;0.00;;;23.50;50.00;;;;;;4867226;29;20068;-77
2023/10/07 15:16:13;;;;;;;0.00;0.00;;;23.50;50.40;;;;;;4874760;29;20034;-77
2023/10/07 15:18:39;;;;;;;0.00;0.00;;;23.40;49.60;;;;;;4872930;29;20029;-77
2023/10/07 15:21:05;;;;;;;0.00;0.00;;;23.40;48.80;;;;;;4851378;29;20494;-77
2023/10/07 15:23:31;;;;;;;0.00;0.00;;;23.50;49.60;;;;;;4869847;29;20029;-77
2023/10/07 15:25:57;;;;;;;0.00;0.00;;;23.40;49.30;;;;;;4872831;29;20040;-78
2023/10/07 15:28:23;;;;;;;0.00;0.00;;;23.40;50.10;;;;;;4872774;29;20101;-77
2023/10/07 15:30:50;;;;;;;0.00;0.00;;;23.40;50.70;;;;;;4866572;29;20485;-78
2023/10/07 15:33:16;;;;;;;0.00;0.00;;;23.40;50.30;;;;;;4867678;29;20030;-78
2023/10/07 15:35:45;;;;;;;0.00;0.00;;;23.30;49.90;;;;;;4870951;29;20105;-77
2023/10/07 15:38:12;;;;;;;0.00;0.00;;;23.30;50.30;;;;;;4871489;29;20037;-78
2023/10/07 15:40:42;;;;;;;0.00;0.00;;;23.30;49.60;;;;;;4855774;29;20037;-79
2023/10/07 15:43:11;;;;;;;0.00;0.00;;;23.30;50.00;;;;;;4872024;29;20029;-78
2023/10/07 15:45:50;;;;;;;0.00;0.00;;;23.30;50.00;;;;;;4870137;29;20053;-77
2023/10/07 15:48:17;;;;;;;0.00;0.00;;;23.20;50.70;;;;;;4863693;29;20040;-77
2023/10/07 15:50:43;;;;;;;0.00;0.00;;;23.20;49.70;;;;;;4869814;29;20033;-77
2023/10/07 15:53:10;;;;;;;0.00;0.00;;;23.20;50.50;;;;;;4871315;29;20027;-77
2023/10/07 15:55:36;;;;;;;0.00;0.00;;;23.20;50.90;;;;;;4852216;29;20037;-77
2023/10/07 15:58:02;;;;;;;0.00;0.00;;;23.10;51.50;;;;;;4872352;29;20029;-77
2023/10/07 16:00:30;;;;;;;0.00;0.00;;;23.00;50.70;;;;;;4868654;29;20049;-78
2023/10/07 16:02:55;;;;;;;0.20;0.05;;;23.10;49.90;;;;;;4860468;29;20505;-75
2023/10/07 16:05:21;;;;;;;0.00;0.00;;;23.10;49.90;;;;;;4874733;29;20116;-79
2023/10/07 16:07:47;;;;;;;0.52;0.00;;;23.10;50.10;;;;;;4865220;29;20081;-77
2023/10/07 16:10:12;;;;;;;0.00;0.00;;;23.00;49.90;;;;;;4868361;29;20048;-77
2023/10/07 16:12:42;;;;;;;0.00;0.00;;;23.00;51.20;;;;;;4853199;29;20615;-77
2023/10/07 16:15:09;;;;;;;0.00;0.00;;;22.80;52.50;;;;;;4866855;29;20033;-77
2023/10/07 16:17:40;;;;;;;0.00;0.00;;;22.80;52.00;;;;;;4847051;29;20025;-77
2023/10/07 16:20:09;;;;;;;0.03;0.03;;;22.80;52.60;;;;;;4869441;29;20033;-79
2023/10/07 16:22:37;;;;;;;0.00;0.00;;;22.70;52.40;;;;;;4878017;29;20036;-78
2023/10/07 16:25:08;;;;;;;0.00;0.00;;;22.70;52.90;;;;;;4872465;29;20093;-78
2023/10/07 16:27:37;;;;;;;0.00;0.00;;;22.60;53.50;;;;;;4848658;29;20068;-79
2023/10/07 16:30:07;;;;;;;0.00;0.00;;;22.60;54.00;;;;;;4870091;29;20429;-80
2023/10/07 16:32:33;;;;;;;0.00;0.00;;;22.50;54.10;;;;;;4863365;29;20101;-80
2023/10/07 16:34:59;;;;;;;0.00;0.00;;;22.40;54.20;;;;;;4865086;29;20033;-79
2023/10/07 16:37:25;;;;;;;0.00;0.00;;;22.40;54.30;;;;;;4854387;29;20122;-80
2023/10/07 16:39:51;;;;;;;0.00;0.00;;;22.30;54.50;;;;;;4868068;29;20046;-80
2023/10/07 16:42:17;;;;;;;0.00;0.00;;;22.30;54.00;;;;;;4864941;29;20029;-80
2023/10/07 16:44:43;;;;;;;0.00;0.00;;;22.30;55.50;;;;;;4871516;29;20044;-78
2023/10/07 16:47:08;;;;;;;0.00;0.00;;;22.20;56.40;;;;;;4865850;29;20033;-79
2023/10/07 16:49:34;;;;;;;0.00;0.00;;;22.10;56.20;;;;;;4869738;29;20037;-79
2023/10/07 16:52:00;;;;;;;0.00;0.00;;;22.00;56.60;;;;;;4849820;29;20049;-79
2023/10/07 16:54:25;;;;;;;0.00;0.00;;;22.00;57.30;;;;;;4866293;29;20045;-78
2023/10/07 16:56:51;;;;;;;0.00;0.00;;;21.80;57.70;;;;;;4871217;29;20037;-80
2023/10/07 16:59:16;;;;;;;0.00;0.00;;;21.80;58.10;;;;;;4850376;29;20028;-79
2023/10/07 17:01:42;;;;;;;0.00;0.00;;;21.70;58.30;;;;;;4866188;29;20306;-78
2023/10/07 17:04:08;;;;;;;0.00;0.00;;;21.60;58.60;;;;;;4866044;29;20029;-89
2023/10/07 17:06:34;;;;;;;0.00;0.00;;;21.50;58.60;;;;;;4865058;29;20061;-85
2023/10/07 17:09:12;;;;;;;0.00;0.00;;;21.40;59.10;;;;;;4848313;29;20029;-86
2023/10/07 17:11:38;;;;;;;0.00;0.00;;;21.30;59.40;;;;;;4866415;29;20028;-80
2023/10/07 17:14:06;;;;;;;0.00;0.00;;;21.30;59.60;;;;;;4865014;29;20021;-78
2023/10/07 17:16:34;;;;;;;0.00;0.00;;;21.20;59.60;;;;;;4844573;29;20039;-78
2023/10/07 17:19:00;;;;;;;0.00;0.00;;;21.10;60.00;;;;;;4865154;29;20104;-78
2023/10/07 17:21:25;;;;;;;0.00;0.00;;;21.10;60.70;;;;;;4865705;29;20069;-80
2023/10/07 17:23:51;;;;;;;0.00;0.00;;;21.00;60.70;;;;;;4864813;29;20029;-79
2023/10/07 17:26:17;;;;;;;0.00;0.00;;;20.90;61.40;;;;;;4866689;29;20096;-80
2023/10/07 17:28:43;;;;;;;0.17;0.00;;;20.80;61.90;;;;;;4865115;29;20346;-80
2023/10/07 17:31:10;;;;;;;0.10;0.03;;;20.80;62.40;;;;;;4860871;29;20034;-75
2023/10/07 17:33:35;;;;;;;0.00;0.00;;;20.80;62.80;;;;;;4854025;29;20061;-75
2023/10/07 17:36:03;;;;;;;0.00;0.00;;;20.70;63.20;;;;;;4841696;29;20069;-76
2023/10/07 17:38:30;;;;;;;0.00;0.00;;;20.60;63.70;;;;;;4859155;29;20024;-76
2023/10/07 17:40:56;;;;;;;0.00;0.00;;;20.60;63.70;;;;;;4862588;29;20041;-76
2023/10/07 17:43:23;;;;;;;0.00;0.00;;;20.50;64.00;;;;;;4864806;29;20025;-75
2023/10/07 17:45:48;;;;;;;0.00;0.00;;;20.50;64.50;;;;;;4862949;29;20033;-75
2023/10/07 17:48:14;;;;;;;0.00;0.00;;;20.50;64.60;;;;;;4860094;29;20033;-75
2023/10/07 17:50:40;;;;;;;0.00;0.00;;;20.50;64.60;;;;;;4867130;29;20029;-73
2023/10/07 17:53:08;;;;;;;0.00;0.00;;;20.40;64.80;;;;;;4863166;29;20554;-89
2023/10/07 17:55:34;;;;;;;0.00;0.00;;;20.40;65.00;;;;;;4842921;29;20060;-86